createdAt,value
2018-07-04T00:00:50.869Z,21.67
2018-07-04T00:01:50.954Z,21.67
2018-07-04T00:02:50.922Z,21.64
2018-07-04T00:03:51.018Z,21.70
2018-07-04T00:04:50.817Z,21.66
2018-07-04T00:05:50.890Z,21.66
2018-07-04T00:06:50.958Z,21.67
2018-07-04T00:07:51.022Z,21.57
2018-07-04T00:08:51.092Z,21.67
2018-07-04T00:09:51.166Z,21.57
2018-07-04T00:10:51.218Z,21.52
2018-07-04T00:11:51.438Z,21.67
2018-07-04T00:12:51.354Z,21.54
2018-07-04T00:13:51.420Z,21.69
2018-07-04T00:14:51.490Z,21.58
2018-07-04T00:15:51.554Z,21.62
2018-07-04T00:16:51.630Z,21.62
2018-07-04T00:17:51.695Z,21.62
2018-07-04T00:18:51.754Z,21.64
2018-07-04T00:19:51.823Z,21.69
2018-07-04T00:20:51.891Z,21.58
2018-07-04T00:21:51.962Z,21.67
2018-07-04T00:22:52.034Z,21.58
2018-07-04T00:23:52.091Z,21.60
2018-07-04T00:24:52.154Z,21.67
2018-07-04T00:25:52.223Z,21.67
2018-07-04T00:26:52.292Z,21.67
2018-07-04T00:27:52.370Z,21.60
2018-07-04T00:28:52.423Z,21.55
2018-07-04T00:29:52.491Z,21.64
2018-07-04T00:30:52.559Z,21.57
2018-07-04T00:31:52.627Z,21.66
2018-07-04T00:32:52.702Z,21.60
2018-07-04T00:33:52.771Z,21.64
2018-07-04T00:34:52.827Z,21.60
2018-07-04T00:35:52.895Z,21.51
2018-07-04T00:36:52.959Z,21.52
2018-07-04T00:37:53.035Z,21.51
2018-07-04T00:38:53.103Z,21.51
2018-07-04T00:39:53.163Z,21.45
2018-07-04T00:40:53.227Z,21.45
2018-07-04T00:41:53.298Z,21.48
2018-07-04T00:42:53.371Z,21.43
2018-07-04T00:43:53.435Z,21.45
2018-07-04T00:44:53.496Z,21.50
2018-07-04T00:45:53.563Z,21.51
2018-07-04T00:46:53.637Z,21.42
2018-07-04T00:47:53.704Z,21.50
2018-07-04T00:48:53.772Z,21.45
2018-07-04T00:49:53.831Z,21.48
2018-07-04T00:50:53.908Z,21.52
2018-07-04T00:51:53.968Z,21.55
2018-07-04T00:52:54.040Z,21.50
2018-07-04T00:53:54.108Z,21.55
2018-07-04T00:54:54.168Z,21.43
2018-07-04T00:55:54.232Z,21.51
2018-07-04T00:56:54.300Z,21.51
2018-07-04T00:57:54.384Z,21.50
2018-07-04T00:58:54.436Z,21.52
2018-07-04T00:59:54.500Z,21.54
2018-07-04T01:00:54.568Z,21.60
2018-07-04T01:01:54.636Z,21.54
2018-07-04T01:02:54.708Z,21.61
2018-07-04T01:03:54.777Z,21.58
2018-07-04T01:04:54.836Z,21.61
2018-07-04T01:05:54.909Z,21.60
2018-07-04T01:06:54.969Z,21.61
2018-07-04T01:07:55.045Z,21.61
2018-07-04T01:08:55.109Z,21.58
2018-07-04T01:09:55.168Z,21.64
2018-07-04T01:10:55.239Z,21.58
2018-07-04T01:11:55.306Z,21.64
2018-07-04T01:12:55.400Z,21.60
2018-07-04T01:13:55.437Z,21.61
2018-07-04T01:14:55.513Z,21.58
2018-07-04T01:15:55.573Z,21.62
2018-07-04T01:16:55.641Z,21.58
2018-07-04T01:17:55.712Z,21.57
2018-07-04T01:18:55.780Z,21.61
2018-07-04T01:19:55.840Z,21.57
2018-07-04T01:20:55.905Z,21.48
2018-07-04T01:21:55.978Z,21.51
2018-07-04T01:22:56.052Z,21.50
2018-07-04T01:23:56.121Z,21.42
2018-07-04T01:24:56.173Z,21.39
2018-07-04T01:25:56.241Z,21.43
2018-07-04T01:26:56.313Z,21.40
2018-07-04T01:27:56.461Z,21.36
2018-07-04T01:28:56.441Z,21.35
2018-07-04T01:29:56.512Z,21.36
2018-07-04T01:30:56.577Z,21.37
2018-07-04T01:31:56.641Z,21.35
2018-07-04T01:32:56.716Z,21.51
2018-07-04T01:33:56.781Z,21.40
2018-07-04T01:34:56.840Z,21.43
2018-07-04T01:35:56.909Z,21.42
2018-07-04T01:36:56.977Z,21.46
2018-07-04T01:37:57.049Z,21.43
2018-07-04T01:38:57.117Z,21.43
2018-07-04T01:39:57.177Z,21.45
2018-07-04T01:40:57.245Z,21.40
2018-07-04T01:41:57.314Z,21.48
2018-07-04T01:42:57.573Z,21.48
2018-07-04T01:43:57.450Z,21.55
2018-07-04T01:44:57.509Z,21.48
2018-07-04T01:45:57.581Z,21.57
2018-07-04T01:46:57.650Z,21.54
2018-07-04T01:47:57.718Z,21.54
2018-07-04T01:48:57.789Z,21.50
2018-07-04T01:49:57.849Z,21.39
2018-07-04T01:50:57.914Z,21.45
2018-07-04T01:51:57.982Z,21.46
2018-07-04T01:52:58.054Z,21.45
2018-07-04T01:53:58.118Z,21.36
2018-07-04T01:54:58.182Z,21.36
2018-07-04T01:55:58.245Z,21.32
2018-07-04T01:56:58.318Z,21.39
2018-07-04T01:57:58.388Z,21.30
2018-07-04T01:58:58.450Z,21.30
2018-07-04T01:59:58.514Z,21.27
2018-07-04T02:00:58.582Z,21.18
2018-07-04T02:01:58.646Z,21.18
2018-07-04T02:02:58.723Z,21.05
2018-07-04T02:03:58.791Z,21.11
2018-07-04T02:04:58.846Z,21.07
2018-07-04T02:05:58.914Z,21.09
2018-07-04T02:06:58.983Z,20.92
2018-07-04T02:07:59.057Z,20.97
2018-07-04T02:08:59.122Z,20.93
2018-07-04T02:09:59.183Z,20.82
2018-07-04T02:10:59.251Z,20.82
2018-07-04T02:11:59.315Z,20.75
2018-07-04T02:12:59.391Z,20.80
2018-07-04T02:13:59.454Z,20.67
2018-07-04T02:14:59.515Z,20.74
2018-07-04T02:15:59.583Z,20.66
2018-07-04T02:16:59.651Z,20.69
2018-07-04T02:17:59.727Z,20.58
2018-07-04T02:18:59.791Z,20.55
2018-07-04T02:19:59.852Z,20.52
2018-07-04T02:20:59.915Z,20.48
2018-07-04T02:21:59.986Z,20.51
2018-07-04T02:23:00.063Z,20.47
2018-07-04T02:24:00.123Z,20.48
2018-07-04T02:25:00.183Z,20.50
2018-07-04T02:26:00.251Z,20.52
2018-07-04T02:27:00.317Z,20.51
2018-07-04T02:28:00.391Z,20.47
2018-07-04T02:29:00.460Z,20.44
2018-07-04T02:30:00.515Z,20.47
2018-07-04T02:31:00.584Z,20.55
2018-07-04T02:32:00.652Z,20.51
2018-07-04T02:33:00.723Z,20.51
2018-07-04T02:34:00.787Z,20.55
2018-07-04T02:35:00.851Z,20.60
2018-07-04T02:36:00.920Z,20.60
2018-07-04T02:37:01.002Z,20.60
2018-07-04T02:38:01.056Z,20.62
2018-07-04T02:39:01.124Z,20.60
2018-07-04T02:40:01.184Z,20.58
2018-07-04T02:41:01.251Z,20.65
2018-07-04T02:42:01.315Z,20.69
2018-07-04T02:43:01.388Z,20.74
2018-07-04T02:44:01.460Z,20.55
2018-07-04T02:45:01.593Z,20.65
2018-07-04T02:46:01.594Z,20.65
2018-07-04T02:47:01.652Z,20.65
2018-07-04T02:48:01.724Z,20.60
2018-07-04T02:49:01.788Z,20.67
2018-07-04T02:50:01.845Z,20.69
2018-07-04T02:51:01.916Z,20.69
2018-07-04T02:52:01.980Z,20.62
2018-07-04T02:53:02.052Z,20.60
2018-07-04T02:54:02.125Z,20.60
2018-07-04T02:55:02.185Z,20.55
2018-07-04T02:56:02.248Z,20.47
2018-07-04T02:57:02.313Z,20.51
2018-07-04T02:58:02.418Z,20.44
2018-07-04T02:59:02.452Z,20.39
2018-07-04T03:00:02.517Z,20.37
2018-07-04T03:01:02.591Z,20.32
2018-07-04T03:02:02.649Z,20.25
2018-07-04T03:03:02.721Z,20.21
2018-07-04T03:04:02.785Z,20.16
2018-07-04T03:05:02.845Z,20.24
2018-07-04T03:06:02.913Z,20.16
2018-07-04T03:07:02.981Z,20.07
2018-07-04T03:08:03.054Z,20.03
2018-07-04T03:09:03.117Z,20.00
2018-07-04T03:10:03.193Z,19.89
2018-07-04T03:11:03.245Z,19.95
2018-07-04T03:12:03.313Z,19.96
2018-07-04T03:13:03.385Z,19.86
2018-07-04T03:14:03.453Z,19.89
2018-07-04T03:15:03.512Z,19.81
2018-07-04T03:16:03.577Z,19.82
2018-07-04T03:17:03.645Z,19.74
2018-07-04T03:18:03.718Z,19.76
2018-07-04T03:19:03.802Z,19.73
2018-07-04T03:20:03.852Z,19.63
2018-07-04T03:21:03.910Z,19.64
2018-07-04T03:22:03.973Z,19.64
2018-07-04T03:23:04.054Z,19.58
2018-07-04T03:24:04.114Z,19.58
2018-07-04T03:25:04.175Z,19.49
2018-07-04T03:26:04.242Z,19.49
2018-07-04T03:27:04.306Z,19.49
2018-07-04T03:28:04.486Z,19.44
2018-07-04T03:29:04.438Z,19.41
2018-07-04T03:30:04.506Z,19.34
2018-07-04T03:31:04.574Z,19.45
2018-07-04T03:32:04.638Z,19.45
2018-07-04T03:33:04.742Z,19.39
2018-07-04T03:34:04.778Z,19.33
2018-07-04T03:35:04.838Z,19.31
2018-07-04T03:36:04.903Z,19.31
2018-07-04T03:37:04.972Z,19.30
2018-07-04T03:38:05.043Z,19.21
2018-07-04T03:39:05.110Z,19.22
2018-07-04T03:40:05.171Z,19.21
2018-07-04T03:41:05.239Z,19.29
2018-07-04T03:42:05.299Z,19.27
2018-07-04T03:43:05.375Z,19.21
2018-07-04T03:44:05.444Z,19.19
2018-07-04T03:45:05.499Z,19.16
2018-07-04T03:46:05.567Z,19.22
2018-07-04T03:47:05.631Z,19.22
2018-07-04T03:48:05.703Z,19.12
2018-07-04T03:49:05.772Z,19.11
2018-07-04T03:50:05.832Z,19.18
2018-07-04T03:51:05.895Z,19.14
2018-07-04T03:52:05.963Z,19.16
2018-07-04T03:53:06.036Z,19.12
2018-07-04T03:54:06.099Z,19.18
2018-07-04T03:55:06.160Z,19.18
2018-07-04T03:56:06.228Z,19.16
2018-07-04T03:57:06.291Z,19.07
2018-07-04T03:58:06.418Z,19.12
2018-07-04T03:59:06.428Z,19.04
2018-07-04T04:00:06.492Z,19.12
2018-07-04T04:01:06.556Z,19.15
2018-07-04T04:02:06.624Z,19.12
2018-07-04T04:03:06.696Z,19.15
2018-07-04T04:04:06.764Z,19.16
2018-07-04T04:05:06.821Z,19.11
2018-07-04T04:06:06.888Z,19.19
2018-07-04T04:07:06.956Z,19.14
2018-07-04T04:08:07.028Z,19.21
2018-07-04T04:09:07.092Z,19.18
2018-07-04T04:10:07.152Z,19.15
2018-07-04T04:11:07.216Z,19.22
2018-07-04T04:12:07.284Z,19.22
2018-07-04T04:13:07.356Z,19.16
2018-07-04T04:14:07.420Z,19.27
2018-07-04T04:15:07.480Z,19.33
2018-07-04T04:16:07.548Z,19.39
2018-07-04T04:17:07.613Z,19.37
2018-07-04T04:18:07.685Z,19.41
2018-07-04T04:19:07.753Z,19.51
2018-07-04T04:20:07.816Z,19.63
2018-07-04T04:21:07.877Z,19.63
2018-07-04T04:22:07.948Z,19.67
2018-07-04T04:23:08.029Z,19.67
2018-07-04T04:24:08.085Z,19.77
2018-07-04T04:25:08.141Z,19.74
2018-07-04T04:26:08.209Z,19.73
2018-07-04T04:27:08.327Z,19.79
2018-07-04T04:28:08.349Z,19.85
2018-07-04T04:29:08.413Z,19.85
2018-07-04T04:30:08.474Z,19.74
2018-07-04T04:31:08.537Z,19.76
2018-07-04T04:32:08.609Z,19.79
2018-07-04T04:33:08.677Z,19.89
2018-07-04T04:34:08.745Z,19.82
2018-07-04T04:35:08.805Z,19.81
2018-07-04T04:36:08.914Z,19.79
2018-07-04T04:37:08.938Z,19.88
2018-07-04T04:38:09.056Z,19.85
2018-07-04T04:39:09.073Z,19.86
2018-07-04T04:40:09.134Z,19.85
2018-07-04T04:41:09.205Z,19.92
2018-07-04T04:42:09.266Z,19.94
2018-07-04T04:43:09.638Z,20.02
2018-07-04T04:44:09.397Z,20.06
2018-07-04T04:45:09.466Z,20.00
2018-07-04T04:46:09.530Z,20.10
2018-07-04T04:47:09.598Z,20.14
2018-07-04T04:48:09.674Z,20.25
2018-07-04T04:49:09.738Z,20.34
2018-07-04T04:50:09.798Z,20.44
2018-07-04T04:51:09.865Z,20.31
2018-07-04T04:52:09.931Z,20.44
2018-07-04T04:53:10.011Z,20.51
2018-07-04T04:54:10.070Z,20.62
2018-07-04T04:55:10.130Z,20.56
2018-07-04T04:56:10.195Z,20.59
2018-07-04T04:57:10.262Z,20.69
2018-07-04T04:58:10.326Z,20.90
2018-07-04T04:59:10.706Z,20.90
2018-07-04T05:00:10.462Z,20.95
2018-07-04T05:01:10.530Z,20.96
2018-07-04T05:02:10.595Z,20.97
2018-07-04T05:03:10.660Z,21.14
2018-07-04T05:04:10.734Z,21.15
2018-07-04T05:05:10.799Z,21.14
2018-07-04T05:06:10.858Z,21.17
2018-07-04T05:07:10.926Z,21.20
2018-07-04T05:08:10.990Z,21.22
2018-07-04T05:09:11.067Z,21.27
2018-07-04T05:10:11.126Z,21.29
2018-07-04T05:11:11.191Z,21.35
2018-07-04T05:12:11.258Z,21.37
2018-07-04T05:13:11.323Z,21.42
2018-07-04T05:14:11.403Z,21.50
2018-07-04T05:15:11.468Z,21.48
2018-07-04T05:16:11.531Z,21.58
2018-07-04T05:17:11.592Z,21.54
2018-07-04T05:18:11.664Z,21.62
2018-07-04T05:19:11.731Z,21.57
2018-07-04T05:20:11.799Z,21.66
2018-07-04T05:21:11.860Z,21.67
2018-07-04T05:22:11.929Z,21.77
2018-07-04T05:23:11.991Z,21.75
2018-07-04T05:24:12.072Z,21.77
2018-07-04T05:25:12.132Z,21.77
2018-07-04T05:26:12.192Z,21.89
2018-07-04T05:27:12.264Z,21.85
2018-07-04T05:28:12.371Z,21.95
2018-07-04T05:29:12.400Z,21.92
2018-07-04T05:30:12.480Z,22.00
2018-07-04T05:31:12.528Z,22.07
2018-07-04T05:32:12.596Z,22.20
2018-07-04T05:33:12.660Z,22.15
2018-07-04T05:34:12.756Z,22.14
2018-07-04T05:35:12.838Z,22.20
2018-07-04T05:36:12.866Z,22.20
2018-07-04T05:37:12.935Z,22.28
2018-07-04T05:38:12.996Z,22.26
2018-07-04T05:39:13.216Z,22.38
2018-07-04T05:40:13.132Z,22.50
2018-07-04T05:41:13.201Z,22.47
2018-07-04T05:42:13.264Z,22.48
2018-07-04T05:43:13.332Z,22.53
2018-07-04T05:44:13.408Z,22.54
2018-07-04T05:45:13.477Z,22.62
2018-07-04T05:46:13.537Z,22.70
2018-07-04T05:47:13.604Z,22.75
2018-07-04T05:48:13.672Z,22.84
2018-07-04T05:49:13.744Z,22.91
2018-07-04T05:50:13.816Z,22.93
2018-07-04T05:51:13.872Z,22.98
2018-07-04T05:52:13.940Z,23.03
2018-07-04T05:53:14.009Z,23.13
2018-07-04T05:54:14.237Z,23.09
2018-07-04T05:55:14.140Z,23.20
2018-07-04T05:56:14.252Z,23.24
2018-07-04T05:57:14.282Z,23.28
2018-07-04T05:58:14.348Z,23.34
2018-07-04T05:59:14.424Z,23.36
2018-07-04T06:00:14.489Z,23.46
2018-07-04T06:01:14.552Z,23.48
2018-07-04T06:02:14.621Z,23.56
2018-07-04T06:03:14.685Z,23.58
2018-07-04T06:04:14.761Z,23.63
2018-07-04T06:05:14.825Z,23.63
2018-07-04T06:06:14.885Z,23.65
2018-07-04T06:07:14.953Z,23.71
2018-07-04T06:08:15.022Z,23.80
2018-07-04T06:09:15.127Z,23.88
2018-07-04T06:10:15.157Z,23.91
2018-07-04T06:11:15.225Z,23.98
2018-07-04T06:12:15.294Z,24.01
2018-07-04T06:13:15.362Z,24.03
2018-07-04T06:14:15.438Z,24.10
2018-07-04T06:15:15.506Z,24.08
2018-07-04T06:16:15.566Z,24.28
2018-07-04T06:17:15.639Z,24.51
2018-07-04T06:18:15.702Z,24.99
2018-07-04T06:19:15.800Z,25.58
2018-07-04T06:20:15.846Z,26.18
2018-07-04T06:21:15.906Z,26.71
2018-07-04T06:22:15.978Z,27.32
2018-07-04T06:23:16.046Z,27.83
2018-07-04T06:24:16.118Z,27.98
2018-07-04T06:25:16.203Z,27.48
2018-07-04T06:26:16.258Z,27.07
2018-07-04T06:27:16.330Z,26.77
2018-07-04T06:28:16.403Z,26.60
2018-07-04T06:29:16.470Z,26.31
2018-07-04T06:30:16.546Z,26.23
2018-07-04T06:31:16.619Z,26.26
2018-07-04T06:32:16.682Z,26.81
2018-07-04T06:33:16.751Z,27.42
2018-07-04T06:34:16.819Z,27.92
2018-07-04T06:35:16.899Z,28.25
2018-07-04T06:36:16.971Z,28.64
2018-07-04T06:37:17.035Z,28.94
2018-07-04T06:38:17.107Z,29.38
2018-07-04T06:39:17.179Z,29.57
2018-07-04T06:40:17.251Z,29.72
2018-07-04T06:41:17.471Z,29.94
2018-07-04T06:42:17.396Z,30.15
2018-07-04T06:43:17.467Z,30.43
2018-07-04T06:44:17.548Z,30.12
2018-07-04T06:45:17.622Z,29.73
2018-07-04T06:46:17.695Z,29.32
2018-07-04T06:47:17.767Z,29.13
2018-07-04T06:48:17.835Z,29.95
2018-07-04T06:49:18.006Z,30.68
2018-07-04T06:50:17.985Z,31.18
2018-07-04T06:51:18.064Z,31.92
2018-07-04T06:52:18.136Z,32.26
2018-07-04T06:53:18.204Z,32.53
2018-07-04T06:54:18.420Z,32.78
2018-07-04T06:55:18.360Z,32.85
2018-07-04T06:56:18.446Z,32.78
2018-07-04T06:57:18.515Z,32.31
2018-07-04T06:58:18.584Z,32.16
2018-07-04T06:59:18.660Z,32.87
2018-07-04T07:00:18.736Z,33.24
2018-07-04T07:01:18.819Z,33.30
2018-07-04T07:02:18.896Z,33.39
2018-07-04T07:03:18.964Z,33.55
2018-07-04T07:04:19.044Z,33.65
2018-07-04T07:05:19.120Z,33.84
2018-07-04T07:06:19.216Z,34.29
2018-07-04T07:07:19.279Z,34.33
2018-07-04T07:08:19.535Z,34.66
2018-07-04T07:09:19.433Z,34.92
2018-07-04T07:10:19.508Z,35.17
2018-07-04T07:11:19.597Z,34.97
2018-07-04T07:12:19.673Z,34.97
2018-07-04T07:13:19.745Z,34.88
2018-07-04T07:14:19.873Z,35.08
2018-07-04T07:15:19.905Z,35.11
2018-07-04T07:16:19.989Z,35.11
2018-07-04T07:17:20.069Z,35.51
2018-07-04T07:18:20.142Z,35.36
2018-07-04T07:19:20.221Z,35.46
2018-07-04T07:20:20.301Z,35.46
2018-07-04T07:21:20.381Z,35.45
2018-07-04T07:22:20.473Z,35.56
2018-07-04T07:23:20.540Z,35.61
2018-07-04T07:24:20.621Z,35.86
2018-07-04T07:25:20.697Z,36.09
2018-07-04T07:26:20.778Z,36.05
2018-07-04T07:27:20.865Z,36.07
2018-07-04T07:28:20.948Z,36.33
2018-07-04T07:29:21.017Z,36.43
2018-07-04T07:30:21.097Z,36.88
2018-07-04T07:31:21.184Z,36.89
2018-07-04T07:32:21.261Z,37.15
2018-07-04T07:33:21.454Z,37.03
2018-07-04T07:34:21.486Z,36.79
2018-07-04T07:35:21.502Z,36.81
2018-07-04T07:36:21.585Z,36.42
2018-07-04T07:37:21.666Z,36.46
2018-07-04T07:38:21.750Z,36.43
2018-07-04T07:39:21.830Z,36.61
2018-07-04T07:40:21.906Z,36.84
2018-07-04T07:41:21.982Z,36.77
2018-07-04T07:42:22.066Z,36.96
2018-07-04T07:43:22.161Z,36.95
2018-07-04T07:44:22.226Z,36.68
2018-07-04T07:45:22.306Z,36.65
2018-07-04T07:46:22.386Z,36.77
2018-07-04T07:47:22.470Z,36.58
2018-07-04T07:48:22.554Z,36.31
2018-07-04T07:49:22.637Z,35.51
2018-07-04T07:50:22.710Z,34.93
2018-07-04T07:51:22.790Z,34.35
2018-07-04T07:52:22.874Z,33.96
2018-07-04T07:53:22.955Z,33.86
2018-07-04T07:54:23.074Z,33.53
2018-07-04T07:55:23.113Z,33.42
2018-07-04T07:56:23.186Z,33.79
2018-07-04T07:57:23.266Z,34.43
2018-07-04T07:58:23.342Z,34.92
2018-07-04T07:59:23.730Z,35.51
2018-07-04T08:00:23.503Z,35.93
2018-07-04T08:01:23.578Z,35.89
2018-07-04T08:02:23.655Z,36.17
2018-07-04T08:03:23.739Z,36.21
2018-07-04T08:04:23.827Z,36.36
2018-07-04T08:05:23.904Z,36.25
2018-07-04T08:06:23.974Z,36.43
2018-07-04T08:07:24.059Z,36.55
2018-07-04T08:08:24.135Z,36.65
2018-07-04T08:09:24.381Z,36.80
2018-07-04T08:10:24.295Z,36.68
2018-07-04T08:11:24.375Z,36.58
2018-07-04T08:12:24.454Z,36.43
2018-07-04T08:13:24.559Z,36.42
2018-07-04T08:14:24.629Z,36.31
2018-07-04T08:15:24.703Z,35.73
2018-07-04T08:16:24.771Z,35.39
2018-07-04T08:17:24.851Z,35.56
2018-07-04T08:18:24.931Z,35.18
2018-07-04T08:19:25.015Z,34.52
2018-07-04T08:20:25.095Z,34.30
2018-07-04T08:21:25.169Z,34.74
2018-07-04T08:22:25.247Z,35.15
2018-07-04T08:23:25.323Z,35.26
2018-07-04T08:24:25.409Z,35.02
2018-07-04T08:25:25.487Z,34.64
2018-07-04T08:26:25.618Z,34.23
2018-07-04T08:27:25.639Z,33.73
2018-07-04T08:28:25.715Z,33.22
2018-07-04T08:29:25.799Z,32.90
2018-07-04T08:30:25.876Z,32.30
2018-07-04T08:31:25.947Z,32.08
2018-07-04T08:32:26.025Z,31.78
2018-07-04T08:33:26.111Z,31.69
2018-07-04T08:34:26.292Z,31.22
2018-07-04T08:35:26.265Z,31.09
2018-07-04T08:36:26.332Z,30.87
2018-07-04T08:37:26.404Z,30.65
2018-07-04T08:38:26.480Z,30.46
2018-07-04T08:39:26.564Z,30.18
2018-07-04T08:40:26.643Z,30.02
2018-07-04T08:41:26.708Z,29.94
2018-07-04T08:42:26.780Z,29.98
2018-07-04T08:43:26.856Z,29.90
2018-07-04T08:44:26.936Z,29.94
2018-07-04T08:45:27.013Z,29.90
2018-07-04T08:46:27.081Z,29.69
2018-07-04T08:47:27.153Z,29.57
2018-07-04T08:48:27.229Z,29.71
2018-07-04T08:49:27.300Z,29.68
2018-07-04T08:50:27.393Z,29.72
2018-07-04T08:51:27.448Z,29.87
2018-07-04T08:52:27.554Z,30.02
2018-07-04T08:53:27.595Z,30.70
2018-07-04T08:54:27.665Z,31.00
2018-07-04T08:55:27.745Z,30.83
2018-07-04T08:56:27.816Z,30.80
2018-07-04T08:57:27.885Z,30.73
2018-07-04T08:58:28.020Z,30.72
2018-07-04T08:59:28.033Z,30.61
2018-07-04T09:00:28.117Z,30.69
2018-07-04T09:01:28.183Z,30.63
2018-07-04T09:02:28.249Z,30.63
2018-07-04T09:03:28.321Z,30.57
2018-07-04T09:04:28.397Z,30.50
2018-07-04T09:05:28.517Z,30.37
2018-07-04T09:06:28.545Z,30.35
2018-07-04T09:07:28.613Z,30.21
2018-07-04T09:08:28.685Z,30.10
2018-07-04T09:09:28.757Z,29.81
2018-07-04T09:10:28.838Z,29.81
2018-07-04T09:11:28.945Z,29.76
2018-07-04T09:12:28.978Z,29.69
2018-07-04T09:13:29.051Z,29.63
2018-07-04T09:14:29.122Z,29.60
2018-07-04T09:15:29.194Z,29.44
2018-07-04T09:16:29.418Z,29.42
2018-07-04T09:17:29.338Z,29.23
2018-07-04T09:18:29.410Z,29.23
2018-07-04T09:19:29.482Z,29.20
2018-07-04T09:20:29.554Z,29.07
2018-07-04T09:21:29.630Z,28.96
2018-07-04T09:22:29.702Z,28.85
2018-07-04T09:23:29.774Z,28.74
2018-07-04T09:24:29.900Z,28.82
2018-07-04T09:25:29.910Z,28.49
2018-07-04T09:26:29.999Z,28.60
2018-07-04T09:27:30.062Z,28.52
2018-07-04T09:28:30.126Z,28.51
2018-07-04T09:29:30.199Z,28.54
2018-07-04T09:30:30.271Z,28.30
2018-07-04T09:31:30.652Z,27.87
2018-07-04T09:32:30.411Z,27.48
2018-07-04T09:33:30.483Z,27.32
2018-07-04T09:34:30.555Z,27.21
2018-07-04T09:35:30.627Z,27.18
2018-07-04T09:36:30.705Z,27.07
2018-07-04T09:37:30.774Z,27.11
2018-07-04T09:38:30.863Z,27.14
2018-07-04T09:39:30.911Z,27.05
2018-07-04T09:40:30.979Z,27.10
2018-07-04T09:41:31.059Z,27.03
2018-07-04T09:42:31.127Z,27.08
2018-07-04T09:43:31.191Z,27.26
2018-07-04T09:44:31.267Z,27.22
2018-07-04T09:45:31.332Z,27.42
2018-07-04T09:46:31.407Z,27.59
2018-07-04T09:47:31.479Z,27.87
2018-07-04T09:48:31.551Z,28.04
2018-07-04T09:49:31.612Z,28.20
2018-07-04T09:50:31.684Z,28.26
2018-07-04T09:51:31.767Z,28.29
2018-07-04T09:52:31.832Z,28.37
2018-07-04T09:53:31.895Z,28.49
2018-07-04T09:54:31.968Z,28.57
2018-07-04T09:55:32.036Z,28.62
2018-07-04T09:56:32.264Z,28.72
2018-07-04T09:57:32.179Z,28.62
2018-07-04T09:58:32.248Z,28.69
2018-07-04T09:59:32.320Z,28.85
2018-07-04T10:00:32.392Z,28.98
2018-07-04T10:01:32.468Z,29.13
2018-07-04T10:02:32.540Z,29.22
2018-07-04T10:03:32.604Z,29.26
2018-07-04T10:04:32.672Z,29.54
2018-07-04T10:05:32.756Z,29.69
2018-07-04T10:06:32.821Z,29.90
2018-07-04T10:07:32.892Z,29.88
2018-07-04T10:08:32.960Z,29.69
2018-07-04T10:09:33.028Z,29.56
2018-07-04T10:10:33.108Z,29.51
2018-07-04T10:11:33.324Z,29.45
2018-07-04T10:12:33.260Z,29.31
2018-07-04T10:13:33.312Z,29.23
2018-07-04T10:14:33.384Z,29.23
2018-07-04T10:15:33.457Z,29.02
2018-07-04T10:16:33.532Z,29.10
2018-07-04T10:17:33.604Z,29.01
2018-07-04T10:18:33.673Z,29.01
2018-07-04T10:19:33.740Z,29.16
2018-07-04T10:20:33.808Z,29.22
2018-07-04T10:21:33.889Z,29.19
2018-07-04T10:22:33.960Z,29.14
2018-07-04T10:23:34.029Z,29.10
2018-07-04T10:24:34.144Z,29.07
2018-07-04T10:25:34.164Z,28.86
2018-07-04T10:26:34.357Z,28.74
2018-07-04T10:27:34.309Z,28.76
2018-07-04T10:28:34.384Z,28.69
2018-07-04T10:29:34.449Z,28.63
2018-07-04T10:30:34.521Z,28.75
2018-07-04T10:31:34.597Z,28.70
2018-07-04T10:32:34.670Z,28.64
2018-07-04T10:33:34.737Z,28.70
2018-07-04T10:34:34.805Z,28.67
2018-07-04T10:35:34.887Z,28.67
2018-07-04T10:36:34.954Z,28.67
2018-07-04T10:37:35.037Z,28.70
2018-07-04T10:38:35.090Z,28.63
2018-07-04T10:39:35.180Z,28.63
2018-07-04T10:40:35.232Z,28.63
2018-07-04T10:41:35.306Z,28.67
2018-07-04T10:42:35.402Z,28.59
2018-07-04T10:43:35.442Z,28.60
2018-07-04T10:44:35.514Z,28.51
2018-07-04T10:45:35.586Z,28.38
2018-07-04T10:46:35.654Z,28.35
2018-07-04T10:47:35.730Z,28.25
2018-07-04T10:48:35.802Z,28.11
2018-07-04T10:49:35.866Z,28.12
2018-07-04T10:50:35.942Z,27.98
2018-07-04T10:51:36.002Z,27.92
2018-07-04T10:52:36.107Z,27.75
2018-07-04T10:53:36.146Z,27.74
2018-07-04T10:54:36.218Z,27.82
2018-07-04T10:55:36.290Z,27.73
2018-07-04T10:56:36.359Z,27.75
2018-07-04T10:57:36.435Z,27.82
2018-07-04T10:58:36.563Z,27.80
2018-07-04T10:59:36.570Z,27.80
2018-07-04T11:00:36.639Z,27.86
2018-07-04T11:01:36.714Z,27.90
2018-07-04T11:02:36.783Z,28.01
2018-07-04T11:03:36.858Z,27.93
2018-07-04T11:04:37.010Z,28.05
2018-07-04T11:05:36.991Z,28.26
2018-07-04T11:06:37.063Z,28.41
2018-07-04T11:07:37.196Z,28.48
2018-07-04T11:08:37.203Z,28.62
2018-07-04T11:09:37.275Z,28.79
2018-07-04T11:10:37.351Z,28.96
2018-07-04T11:11:37.411Z,29.07
2018-07-04T11:12:37.499Z,29.16
2018-07-04T11:13:37.571Z,29.49
2018-07-04T11:14:37.619Z,29.54
2018-07-04T11:15:37.695Z,29.72
2018-07-04T11:16:37.768Z,29.93
2018-07-04T11:17:37.843Z,30.24
2018-07-04T11:18:37.911Z,30.54
2018-07-04T11:19:37.977Z,30.87
2018-07-04T11:20:38.055Z,31.14
2018-07-04T11:21:38.119Z,31.28
2018-07-04T11:22:38.245Z,31.54
2018-07-04T11:23:38.263Z,31.62
2018-07-04T11:24:38.331Z,31.62
2018-07-04T11:25:38.404Z,31.58
2018-07-04T11:26:38.476Z,31.42
2018-07-04T11:27:38.559Z,31.52
2018-07-04T11:28:38.628Z,31.73
2018-07-04T11:29:38.692Z,31.92
2018-07-04T11:30:38.764Z,31.87
2018-07-04T11:31:38.836Z,32.12
2018-07-04T11:32:38.912Z,32.12
2018-07-04T11:33:38.989Z,32.18
2018-07-04T11:34:39.052Z,32.38
2018-07-04T11:35:39.124Z,32.41
2018-07-04T11:36:39.229Z,32.40
2018-07-04T11:37:39.280Z,32.26
2018-07-04T11:38:39.384Z,32.43
2018-07-04T11:39:39.416Z,32.43
2018-07-04T11:40:39.486Z,32.55
2018-07-04T11:41:39.560Z,32.83
2018-07-04T11:42:39.632Z,33.23
2018-07-04T11:43:39.708Z,33.49
2018-07-04T11:44:39.785Z,33.22
2018-07-04T11:45:39.845Z,33.19
2018-07-04T11:46:39.920Z,32.49
2018-07-04T11:47:39.996Z,32.30
2018-07-04T11:48:40.096Z,32.18
2018-07-04T11:49:40.236Z,32.07
2018-07-04T11:50:40.212Z,31.21
2018-07-04T11:51:40.300Z,31.03
2018-07-04T11:52:40.361Z,31.25
2018-07-04T11:53:40.437Z,31.52
2018-07-04T11:54:40.517Z,31.81
2018-07-04T11:55:40.600Z,31.93
2018-07-04T11:56:40.652Z,31.94
2018-07-04T11:57:40.732Z,31.99
2018-07-04T11:58:40.801Z,32.22
2018-07-04T11:59:40.901Z,32.30
2018-07-04T12:00:40.940Z,32.33
2018-07-04T12:01:41.069Z,32.51
2018-07-04T12:02:41.089Z,32.56
2018-07-04T12:03:41.245Z,32.52
2018-07-04T12:04:41.233Z,32.64
2018-07-04T12:05:41.309Z,32.52
2018-07-04T12:06:41.385Z,32.55
2018-07-04T12:07:41.453Z,32.59
2018-07-04T12:08:41.545Z,32.55
2018-07-04T12:09:41.605Z,32.34
2018-07-04T12:10:41.673Z,32.29
2018-07-04T12:11:41.745Z,32.03
2018-07-04T12:12:41.817Z,32.01
2018-07-04T12:13:41.897Z,32.09
2018-07-04T12:14:41.978Z,32.09
2018-07-04T12:15:42.037Z,32.07
2018-07-04T12:16:42.105Z,32.04
2018-07-04T12:17:42.181Z,31.87
2018-07-04T12:18:42.429Z,31.73
2018-07-04T12:19:42.334Z,31.76
2018-07-04T12:20:42.403Z,31.66
2018-07-04T12:21:42.484Z,31.62
2018-07-04T12:22:42.550Z,31.73
2018-07-04T12:23:42.646Z,31.56
2018-07-04T12:24:42.698Z,31.49
2018-07-04T12:25:42.762Z,31.43
2018-07-04T12:26:42.910Z,31.34
2018-07-04T12:27:42.910Z,31.39
2018-07-04T12:28:43.002Z,31.39
2018-07-04T12:29:43.062Z,31.39
2018-07-04T12:30:43.129Z,31.40
2018-07-04T12:31:43.248Z,31.40
2018-07-04T12:32:43.279Z,31.51
2018-07-04T12:33:43.359Z,31.55
2018-07-04T12:34:44.203Z,31.55
2018-07-04T12:35:43.490Z,31.55
2018-07-04T12:36:43.562Z,31.34
2018-07-04T12:37:43.634Z,31.40
2018-07-04T12:38:43.715Z,31.39
2018-07-04T12:39:43.798Z,31.42
2018-07-04T12:40:43.857Z,31.37
2018-07-04T12:41:43.923Z,31.33
2018-07-04T12:42:43.999Z,31.24
2018-07-04T12:43:44.273Z,31.29
2018-07-04T12:44:44.143Z,31.22
2018-07-04T12:45:44.215Z,31.14
2018-07-04T12:46:44.287Z,31.10
2018-07-04T12:47:44.359Z,31.17
2018-07-04T12:48:44.440Z,30.94
2018-07-04T12:49:44.517Z,31.00
2018-07-04T12:50:44.575Z,30.97
2018-07-04T12:51:44.647Z,31.05
2018-07-04T12:52:44.719Z,30.92
2018-07-04T12:53:44.799Z,30.96